createdAt,value
2022-10-25T00:00:29.387Z,95198.91
2022-10-25T00:01:30.472Z,95206.84
2022-10-25T00:02:32.512Z,95194.63
2022-10-25T00:03:29.287Z,95212.88
2022-10-25T00:04:25.991Z,95187.06
2022-10-25T00:05:22.716Z,95200.31
2022-10-25T00:06:19.789Z,95190.09
2022-10-25T00:07:16.589Z,95197.16
2022-10-25T00:08:13.355Z,95208.91
2022-10-25T00:09:10.654Z,95140.88
2022-10-25T00:10:08.168Z,95192.69
2022-10-25T00:11:06.107Z,95130.19
2022-10-25T00:12:02.968Z,95173.78
2022-10-25T00:12:59.653Z,95197.56
2022-10-25T00:13:59.944Z,95189.44
2022-10-25T00:14:56.630Z,95211.72
2022-10-25T00:15:53.314Z,95214.00
2022-10-25T00:16:50.047Z,95197.75
2022-10-25T00:17:46.858Z,95204.84
2022-10-25T00:18:44.277Z,95206.84
2022-10-25T00:19:40.983Z,95184.22
2022-10-25T00:20:38.299Z,95158.31
2022-10-25T00:21:34.996Z,95218.72
2022-10-25T00:22:31.694Z,95213.59
2022-10-25T00:23:28.377Z,95194.78
2022-10-25T00:24:25.175Z,95140.13
2022-10-25T00:25:21.901Z,95214.72
2022-10-25T00:26:19.877Z,95211.81
2022-10-25T00:27:16.579Z,95164.72
2022-10-25T00:28:13.286Z,95195.16
2022-10-25T00:29:11.739Z,95207.56
2022-10-25T00:30:09.215Z,95211.69
2022-10-25T00:31:12.302Z,95224.03
2022-10-25T00:32:08.983Z,95218.59
2022-10-25T00:33:05.682Z,95176.47
2022-10-25T00:34:02.568Z,95172.03
2022-10-25T00:34:59.276Z,95193.91
2022-10-25T00:35:55.976Z,95141.69
2022-10-25T00:36:52.674Z,95026.03
2022-10-25T00:37:50.308Z,95207.09
2022-10-25T00:38:48.095Z,95114.09
2022-10-25T00:39:46.102Z,95025.56
2022-10-25T00:40:42.806Z,95155.00
2022-10-25T00:41:39.552Z,95200.75
2022-10-25T00:42:36.308Z,95189.16
2022-10-25T00:43:40.583Z,95140.38
2022-10-25T00:44:40.061Z,95180.56
2022-10-25T00:45:37.736Z,95063.19
2022-10-25T00:46:34.507Z,95190.53
2022-10-25T00:47:45.915Z,95182.38
2022-10-25T00:49:11.117Z,95161.19
2022-10-25T00:50:10.646Z,95177.50
2022-10-25T00:51:08.173Z,95153.19
2022-10-25T00:52:08.397Z,95168.44
2022-10-25T00:53:11.617Z,95055.00
2022-10-25T00:54:15.128Z,95025.75
2022-10-25T00:55:17.601Z,95189.44
2022-10-25T00:56:22.486Z,95195.34
2022-10-25T00:57:27.254Z,95180.03
2022-10-25T00:58:28.731Z,95164.00
2022-10-25T00:59:28.757Z,95171.78
2022-10-25T01:00:25.625Z,95172.94
2022-10-25T01:01:24.712Z,95162.00
2022-10-25T01:02:22.907Z,95077.94
2022-10-25T01:03:23.961Z,95015.38
2022-10-25T01:04:26.510Z,95013.03
2022-10-25T01:05:23.721Z,95187.03
2022-10-25T01:06:30.058Z,95160.72
2022-10-25T01:07:26.822Z,95144.03
2022-10-25T01:08:25.270Z,95109.50
2022-10-25T01:09:26.758Z,95152.63
2022-10-25T01:10:23.458Z,95130.38
2022-10-25T01:11:20.633Z,95155.50
2022-10-25T01:12:17.539Z,95090.16
2022-10-25T01:13:14.708Z,95125.19
2022-10-25T01:14:15.440Z,95119.88
2022-10-25T01:15:13.358Z,95169.81
2022-10-25T01:16:26.656Z,95169.47
2022-10-25T01:18:01.707Z,95190.06
2022-10-25T01:19:16.508Z,95168.75
2022-10-25T01:20:34.765Z,95162.50
2022-10-25T01:21:45.806Z,95166.03
2022-10-25T01:22:49.351Z,95174.47
2022-10-25T01:24:44.566Z,95166.31
2022-10-25T01:25:59.322Z,95162.28
2022-10-25T01:27:14.451Z,95149.41
2022-10-25T01:28:13.922Z,95167.66
2022-10-25T01:30:01.434Z,95162.56
2022-10-25T01:31:12.767Z,95165.63
2022-10-25T01:32:26.193Z,95134.06
2022-10-25T01:33:36.904Z,95007.00
2022-10-25T01:34:45.900Z,95117.06
2022-10-25T01:35:57.923Z,95168.56
2022-10-25T01:37:00.475Z,95156.84
2022-10-25T01:38:22.272Z,95169.47
2022-10-25T01:39:20.828Z,95160.22
2022-10-25T01:40:32.416Z,95162.66
2022-10-25T01:41:49.164Z,95165.56
2022-10-25T01:43:07.127Z,95151.00
2022-10-25T01:44:09.914Z,95155.56
2022-10-25T01:45:27.646Z,95165.41
2022-10-25T01:46:44.844Z,95003.00
2022-10-25T01:47:55.835Z,95171.41
2022-10-25T01:49:05.864Z,95156.38
2022-10-25T01:50:11.013Z,95158.06
2022-10-25T01:51:14.481Z,95163.72
2022-10-25T01:52:11.198Z,95074.25
2022-10-25T01:53:08.076Z,95111.00
2022-10-25T01:54:19.514Z,95172.63
2022-10-25T01:55:19.813Z,95107.56
2022-10-25T01:56:26.817Z,95153.53
2022-10-25T01:57:26.570Z,95152.50
2022-10-25T01:58:52.174Z,95151.34
2022-10-25T02:00:09.583Z,95159.53
2022-10-25T02:01:46.844Z,95158.59
2022-10-25T02:03:34.357Z,95164.81
2022-10-25T02:05:04.558Z,95161.03
2022-10-25T02:06:16.704Z,95109.34
2022-10-25T02:07:22.190Z,95151.16
2022-10-25T02:08:18.817Z,95142.41
2022-10-25T02:09:27.889Z,95146.81
2022-10-25T02:10:40.923Z,94948.25
2022-10-25T02:11:37.849Z,95112.00
2022-10-25T02:12:49.509Z,95158.13
2022-10-25T02:13:52.038Z,95140.69
2022-10-25T02:15:23.983Z,95148.66
2022-10-25T02:16:27.463Z,95118.16
2022-10-25T02:17:27.743Z,95146.56
2022-10-25T02:19:37.210Z,95106.19
2022-10-25T02:20:36.195Z,95149.31
2022-10-25T02:21:36.974Z,95167.50
2022-10-25T02:22:35.383Z,95113.13
2022-10-25T02:23:36.934Z,95158.41
2022-10-25T02:24:36.684Z,95156.84
2022-10-25T02:25:36.120Z,95134.34
2022-10-25T02:26:34.301Z,95072.47
2022-10-25T02:27:33.774Z,94973.25
2022-10-25T02:28:35.930Z,95024.94
2022-10-25T02:29:35.688Z,95165.75
2022-10-25T02:30:35.725Z,95054.16
2022-10-25T02:31:36.317Z,95092.91
2022-10-25T02:32:34.002Z,95157.19
2022-10-25T02:33:30.727Z,95119.16
2022-10-25T02:34:27.409Z,95139.72
2022-10-25T02:35:24.103Z,94999.78
2022-10-25T02:36:23.895Z,95147.00
2022-10-25T02:37:20.661Z,95095.28
2022-10-25T02:38:18.122Z,95154.09
2022-10-25T02:39:15.177Z,95172.75
2022-10-25T02:40:12.455Z,95170.69
2022-10-25T02:41:09.554Z,95035.88
2022-10-25T02:42:06.382Z,95150.41
2022-10-25T02:43:03.117Z,95173.22
2022-10-25T02:44:00.515Z,95108.94
2022-10-25T02:44:57.197Z,95161.22
2022-10-25T02:45:53.904Z,95152.97
2022-10-25T02:46:50.601Z,95155.34
2022-10-25T02:47:47.532Z,95111.13
2022-10-25T02:48:44.953Z,95106.31
2022-10-25T02:49:41.737Z,95148.16
2022-10-25T02:50:38.438Z,95127.59
2022-10-25T02:51:35.146Z,95113.50
2022-10-25T02:52:31.868Z,95151.19
2022-10-25T02:53:28.992Z,95150.78
2022-10-25T02:54:25.793Z,95169.63
2022-10-25T02:55:22.500Z,95154.31
2022-10-25T02:56:22.049Z,95146.25
2022-10-25T02:57:18.862Z,94963.38
2022-10-25T02:58:15.555Z,95155.03
2022-10-25T02:59:15.228Z,95149.47
2022-10-25T03:01:16.746Z,95098.34
2022-10-25T03:02:13.518Z,95092.81
2022-10-25T03:03:10.218Z,95132.91
2022-10-25T03:04:06.927Z,95111.53
2022-10-25T03:05:03.693Z,95125.06
2022-10-25T03:06:00.937Z,95140.00
2022-10-25T03:06:57.774Z,95138.19
2022-10-25T03:07:54.451Z,95149.88
2022-10-25T03:08:51.200Z,95146.34
2022-10-25T03:09:47.962Z,95146.09
2022-10-25T03:10:44.673Z,95088.22
2022-10-25T03:11:41.459Z,95146.84
2022-10-25T03:12:38.306Z,95042.75
2022-10-25T03:13:35.364Z,95142.47
2022-10-25T03:14:32.154Z,95152.38
2022-10-25T03:15:28.842Z,95149.38
2022-10-25T03:16:25.531Z,95127.97
2022-10-25T03:17:22.222Z,95143.91
2022-10-25T03:18:18.930Z,95137.75
2022-10-25T03:19:15.652Z,95107.25
2022-10-25T03:20:12.362Z,95140.72
2022-10-25T03:21:09.066Z,95129.81
2022-10-25T03:22:05.779Z,95093.72
2022-10-25T03:23:02.494Z,95128.22
2022-10-25T03:23:59.238Z,95063.84
2022-10-25T03:24:55.957Z,95131.31
2022-10-25T03:25:54.417Z,95123.72
2022-10-25T03:26:51.388Z,95135.03
2022-10-25T03:27:48.767Z,95153.28
2022-10-25T03:28:45.912Z,95156.50
2022-10-25T03:29:42.667Z,95141.28
2022-10-25T03:30:41.874Z,95160.94
2022-10-25T03:31:38.608Z,95088.25
2022-10-25T03:32:35.307Z,95164.28
2022-10-25T03:33:31.998Z,95157.22
2022-10-25T03:34:28.743Z,95143.72
2022-10-25T03:35:26.296Z,95130.34
2022-10-25T03:36:23.084Z,95003.59
2022-10-25T03:37:19.817Z,95100.44
2022-10-25T03:38:16.785Z,95143.19
2022-10-25T03:39:13.482Z,95141.97
2022-10-25T03:40:10.725Z,95162.03
2022-10-25T03:41:07.747Z,95138.25
2022-10-25T03:42:04.738Z,95156.63
2022-10-25T03:43:01.419Z,95152.13
2022-10-25T03:43:58.151Z,95138.25
2022-10-25T03:44:54.842Z,95155.06
2022-10-25T03:45:51.518Z,95145.13
2022-10-25T03:46:48.239Z,95151.34
2022-10-25T03:47:45.870Z,95148.22
2022-10-25T03:48:42.871Z,95132.00
2022-10-25T03:49:39.667Z,95138.88
2022-10-25T03:50:36.389Z,95158.75
2022-10-25T03:51:33.189Z,95164.22
2022-10-25T03:52:29.948Z,95128.94
2022-10-25T03:53:26.633Z,95145.78
2022-10-25T03:54:25.622Z,95124.84
2022-10-25T03:55:25.693Z,95083.03
2022-10-25T03:56:22.470Z,95069.34
2022-10-25T03:57:19.323Z,95118.50
2022-10-25T03:58:16.346Z,94991.31
2022-10-25T03:59:13.022Z,95149.53
2022-10-25T04:00:10.869Z,95123.56
2022-10-25T04:01:11.015Z,95102.47
2022-10-25T04:02:07.807Z,95167.19
2022-10-25T04:03:04.716Z,95151.03
2022-10-25T04:04:01.591Z,95171.28
2022-10-25T04:04:58.310Z,95102.81
2022-10-25T04:05:54.989Z,95091.88
2022-10-25T04:06:51.687Z,95134.00
2022-10-25T04:07:48.813Z,95150.97
2022-10-25T04:08:45.775Z,95120.53
2022-10-25T04:09:42.567Z,95095.53
2022-10-25T04:10:39.263Z,95136.25
2022-10-25T04:11:36.084Z,95163.41
2022-10-25T04:12:32.803Z,95114.09
2022-10-25T04:13:29.813Z,95113.63
2022-10-25T04:14:26.526Z,95104.38
2022-10-25T04:15:24.069Z,95153.78
2022-10-25T04:16:20.812Z,95170.84
2022-10-25T04:17:17.571Z,95131.53
2022-10-25T04:18:14.270Z,95157.00
2022-10-25T04:19:11.183Z,95148.59
2022-10-25T04:20:08.385Z,95142.53
2022-10-25T04:21:05.232Z,95145.75
2022-10-25T04:22:04.873Z,95095.59
2022-10-25T04:23:01.630Z,95023.56
2022-10-25T04:24:00.638Z,95140.69
2022-10-25T04:25:00.217Z,95146.41
2022-10-25T04:25:57.280Z,95129.63
2022-10-25T04:26:54.044Z,95132.97
2022-10-25T04:27:50.791Z,95136.09
2022-10-25T04:28:53.282Z,95015.91
2022-10-25T04:29:49.977Z,95152.22
2022-10-25T04:30:46.683Z,95156.03
2022-10-25T04:31:43.444Z,95119.91
2022-10-25T04:32:40.132Z,95103.78
2022-10-25T04:33:36.839Z,95136.09
2022-10-25T04:34:33.551Z,95147.41
2022-10-25T04:35:30.305Z,95118.94
2022-10-25T04:36:30.218Z,95145.84
2022-10-25T04:37:26.937Z,95171.25
2022-10-25T04:38:24.930Z,95145.94
2022-10-25T04:39:21.662Z,95154.56
2022-10-25T04:40:22.587Z,95015.75
2022-10-25T04:41:21.634Z,95157.75
2022-10-25T04:42:19.437Z,95136.78
2022-10-25T04:43:16.262Z,95124.31
2022-10-25T04:44:13.009Z,95151.59
2022-10-25T04:45:09.967Z,95104.19
2022-10-25T04:46:06.822Z,95117.56
2022-10-25T04:47:03.566Z,95062.59
2022-10-25T04:48:00.250Z,95147.41
2022-10-25T04:48:57.238Z,95159.53
2022-10-25T04:49:53.888Z,95150.66
2022-10-25T04:50:50.684Z,95080.34
2022-10-25T04:51:47.531Z,95035.13
2022-10-25T04:52:44.506Z,95156.28
2022-10-25T04:53:41.346Z,94971.09
2022-10-25T04:54:38.115Z,95155.66
2022-10-25T04:55:34.991Z,95152.63
2022-10-25T04:56:31.870Z,95118.03
2022-10-25T04:57:28.533Z,95158.13
2022-10-25T04:58:30.375Z,95109.97
2022-10-25T04:59:28.366Z,95088.78
2022-10-25T05:00:26.005Z,95158.59
2022-10-25T05:01:22.811Z,95083.75
2022-10-25T05:02:19.801Z,95160.44
2022-10-25T05:03:16.726Z,95154.00
2022-10-25T05:04:13.434Z,95149.03
2022-10-25T05:05:10.538Z,95147.44
2022-10-25T05:06:11.670Z,95142.59
2022-10-25T05:07:08.386Z,95145.50
2022-10-25T05:08:05.186Z,95144.63
2022-10-25T05:09:01.887Z,95136.31
2022-10-25T05:09:58.626Z,94975.72
2022-10-25T05:10:55.418Z,95140.09
2022-10-25T05:11:52.100Z,95147.06
2022-10-25T05:12:49.045Z,94992.78
2022-10-25T05:13:46.993Z,95075.56
2022-10-25T05:14:44.211Z,95165.34
2022-10-25T05:15:40.911Z,95153.44
2022-10-25T05:16:39.159Z,95163.00
2022-10-25T05:17:35.930Z,95022.22
2022-10-25T05:18:34.579Z,95168.06
2022-10-25T05:19:31.266Z,95119.88
2022-10-25T05:20:28.658Z,95080.47
2022-10-25T05:21:28.743Z,95157.47
2022-10-25T05:22:26.315Z,95153.28
2022-10-25T05:23:24.378Z,95168.25
2022-10-25T05:24:21.176Z,95119.00
2022-10-25T05:25:18.344Z,94968.44
2022-10-25T05:26:19.125Z,95167.28
2022-10-25T05:27:16.220Z,95166.28
2022-10-25T05:28:12.943Z,95175.38
2022-10-25T05:29:12.501Z,95165.03
2022-10-25T05:30:10.023Z,95175.47
2022-10-25T05:32:07.559Z,95163.84
2022-10-25T05:33:04.919Z,95172.13
2022-10-25T05:34:01.973Z,95185.94
2022-10-25T05:34:58.690Z,95192.16
2022-10-25T05:35:55.419Z,95189.97
2022-10-25T05:36:52.166Z,95186.28
2022-10-25T05:37:48.864Z,95201.25
2022-10-25T05:38:45.797Z,95194.19
2022-10-25T05:39:42.504Z,95191.72
2022-10-25T05:40:39.330Z,95057.41
2022-10-25T05:41:37.298Z,95189.53
2022-10-25T05:42:34.216Z,95172.16
2022-10-25T05:43:31.174Z,95160.03
2022-10-25T05:44:27.875Z,95199.03
2022-10-25T05:45:24.571Z,94991.94
2022-10-25T05:46:24.311Z,95139.63
2022-10-25T05:47:21.088Z,95187.41
2022-10-25T05:48:19.039Z,95066.72
2022-10-25T05:49:15.779Z,95169.81
2022-10-25T05:50:12.509Z,95209.34
2022-10-25T05:51:32.172Z,95190.06
2022-10-25T05:52:29.761Z,95201.19
2022-10-25T05:53:26.502Z,95212.03
2022-10-25T05:54:23.685Z,95201.72
2022-10-25T05:55:20.367Z,95211.56
2022-10-25T05:56:18.980Z,95193.94
2022-10-25T05:57:15.913Z,95019.19
2022-10-25T05:58:12.612Z,95219.81
2022-10-25T05:59:12.224Z,95066.50
2022-10-25T06:00:09.464Z,95209.50
2022-10-25T06:01:07.227Z,95208.56
2022-10-25T06:02:04.155Z,95230.41
2022-10-25T06:03:02.487Z,95183.63
2022-10-25T06:03:59.306Z,95190.25
2022-10-25T06:04:56.017Z,95191.25
2022-10-25T06:05:52.882Z,95231.50
2022-10-25T06:06:52.126Z,94940.72
2022-10-25T06:07:48.910Z,95217.03
2022-10-25T06:08:46.367Z,95226.22
2022-10-25T06:09:43.070Z,95238.75
2022-10-25T06:10:39.798Z,95195.53
2022-10-25T06:11:37.931Z,95030.59
2022-10-25T06:12:34.668Z,95230.97
2022-10-25T06:13:31.999Z,95102.09
2022-10-25T06:14:28.673Z,95241.28
2022-10-25T06:15:25.406Z,95229.94
2022-10-25T06:16:22.681Z,95226.78
2022-10-25T06:17:19.417Z,95243.22
2022-10-25T06:18:16.175Z,95142.22
2022-10-25T06:19:12.937Z,95238.44
2022-10-25T06:20:09.717Z,95199.22
2022-10-25T06:21:10.125Z,95204.19
2022-10-25T06:22:06.817Z,95247.63
2022-10-25T06:23:05.309Z,95224.41
2022-10-25T06:24:05.470Z,95203.22
2022-10-25T06:25:02.171Z,95232.66
2022-10-25T06:26:01.417Z,95216.44
2022-10-25T06:26:58.112Z,95220.00
2022-10-25T06:27:54.831Z,95220.75
2022-10-25T06:28:57.496Z,95154.78
2022-10-25T06:29:54.171Z,95231.41
2022-10-25T06:30:50.850Z,95218.25
2022-10-25T06:31:47.622Z,95228.66
2022-10-25T06:32:44.609Z,95209.97
2022-10-25T06:33:42.718Z,95227.84
2022-10-25T06:34:39.439Z,95236.13
2022-10-25T06:35:36.107Z,95235.09
2022-10-25T06:36:32.923Z,95206.78
2022-10-25T06:37:30.108Z,95238.66
2022-10-25T06:38:27.185Z,95222.81
2022-10-25T06:39:23.944Z,95204.63
2022-10-25T06:41:25.435Z,95028.78
2022-10-25T06:42:22.156Z,95234.81
2022-10-25T06:43:18.873Z,95240.13
2022-10-25T06:44:15.582Z,95230.09
2022-10-25T06:45:12.284Z,95241.56
2022-10-25T06:46:31.774Z,95234.13
2022-10-25T06:47:28.460Z,95186.94
2022-10-25T06:48:25.147Z,95197.69
2022-10-25T06:49:21.844Z,95217.88
2022-10-25T06:50:19.117Z,95167.19
2022-10-25T06:51:16.134Z,95134.91
2022-10-25T06:52:12.831Z,95194.09
2022-10-25T06:53:09.849Z,95053.25
2022-10-25T06:54:08.145Z,95227.50
2022-10-25T06:55:05.230Z,95221.44
2022-10-25T06:56:04.736Z,95187.28
2022-10-25T06:57:02.283Z,95223.78
2022-10-25T06:59:13.568Z,95235.22
2022-10-25T07:00:11.037Z,95231.59
2022-10-25T07:01:11.436Z,95237.75
2022-10-25T07:02:09.381Z,95217.72
2022-10-25T07:03:06.161Z,95158.53
2022-10-25T07:04:03.586Z,95195.16
2022-10-25T07:05:00.284Z,95115.59
2022-10-25T07:06:26.918Z,95207.63
2022-10-25T07:07:23.671Z,95234.78
2022-10-25T07:08:20.403Z,95219.69
2022-10-25T07:09:17.128Z,95156.84
2022-10-25T07:10:13.885Z,95227.75
2022-10-25T07:11:19.581Z,95229.34
2022-10-25T07:12:16.291Z,95223.25
2022-10-25T07:13:12.971Z,95092.59
2022-10-25T07:14:10.281Z,95178.13
2022-10-25T07:15:07.629Z,95251.00
2022-10-25T07:16:07.173Z,95225.06
2022-10-25T07:17:03.990Z,95201.84
2022-10-25T07:18:00.677Z,95172.25
2022-10-25T07:19:01.871Z,95231.78
2022-10-25T07:19:58.601Z,95060.16
2022-10-25T07:20:59.650Z,95217.81
2022-10-25T07:21:56.342Z,95223.72
2022-10-25T07:22:55.528Z,95219.47
2022-10-25T07:23:55.914Z,95206.09
2022-10-25T07:24:52.615Z,95217.06
2022-10-25T07:25:49.299Z,95226.47
2022-10-25T07:26:46.050Z,95191.38
2022-10-25T07:27:42.776Z,95218.16
2022-10-25T07:28:40.679Z,95124.00
2022-10-25T07:29:37.344Z,95060.25
2022-10-25T07:30:34.352Z,95174.69
2022-10-25T07:31:34.841Z,95181.53
2022-10-25T07:32:31.531Z,95006.13
2022-10-25T07:33:31.298Z,95102.81
2022-10-25T07:34:28.027Z,95074.31
2022-10-25T07:35:24.715Z,95221.56
2022-10-25T07:36:21.442Z,95223.81
2022-10-25T07:37:18.135Z,95232.34
2022-10-25T07:38:15.815Z,95235.59
2022-10-25T07:39:12.714Z,95142.38
2022-10-25T09:07:01.901Z,95163.63
2022-10-25T09:08:15.387Z,95165.97
2022-10-25T09:09:30.880Z,95166.13
2022-10-25T09:10:52.054Z,95165.16
2022-10-25T09:11:54.973Z,94734.66
2022-10-25T09:12:57.753Z,95170.06
2022-10-25T09:14:12.098Z,95164.19
2022-10-25T09:15:17.891Z,95155.78
2022-10-25T09:16:24.558Z,95150.88
2022-10-25T09:17:27.367Z,95163.22
2022-10-25T09:18:47.338Z,95058.59
2022-10-25T09:20:17.937Z,95161.69
2022-10-25T09:21:59.299Z,95167.34
2022-10-25T09:23:11.414Z,95155.88
2022-10-25T09:24:45.534Z,95159.06
2022-10-25T09:26:06.594Z,95162.28
2022-10-25T09:27:15.393Z,95151.13
2022-10-25T09:28:46.528Z,95118.47
2022-10-25T09:29:53.142Z,94965.91
2022-10-25T09:30:56.714Z,95175.78
2022-10-25T09:31:58.322Z,94999.34
2022-10-25T09:33:01.352Z,95169.13
2022-10-25T09:34:04.448Z,95163.50
2022-10-25T09:35:04.626Z,95084.78
2022-10-25T09:36:04.084Z,95104.16
2022-10-25T09:37:15.666Z,95159.81
2022-10-25T09:38:23.703Z,95131.19
2022-10-25T09:39:35.514Z,95146.97
2022-10-25T09:40:54.058Z,95104.16
2022-10-25T09:41:53.843Z,95133.63
2022-10-25T09:42:58.063Z,95122.41
2022-10-25T09:44:12.496Z,95130.75
2022-10-25T09:45:38.483Z,95086.41
2022-10-25T09:46:56.188Z,95064.16
2022-10-25T09:48:02.245Z,95054.84
2022-10-25T09:49:03.952Z,95086.66
2022-10-25T09:50:12.144Z,95136.91
2022-10-25T09:51:22.750Z,95126.81
2022-10-25T09:52:40.600Z,95132.13
2022-10-25T09:53:42.029Z,95129.19
2022-10-25T09:54:48.962Z,95119.84
2022-10-25T09:55:53.970Z,95038.09
2022-10-25T09:56:50.831Z,95118.53
2022-10-25T09:57:47.800Z,95116.16
2022-10-25T09:58:47.222Z,95116.13
2022-10-25T09:59:50.263Z,95101.72
2022-10-25T10:00:48.393Z,95019.19
2022-10-25T10:01:45.354Z,95121.50
2022-10-25T10:02:42.425Z,95108.13
2022-10-25T10:03:41.278Z,95091.56
2022-10-25T10:04:39.138Z,94990.59
2022-10-25T10:05:37.350Z,94956.97
2022-10-25T10:06:39.544Z,95130.84
2022-10-25T10:07:37.513Z,95088.09
2022-10-25T10:08:36.290Z,95065.94
2022-10-25T10:09:43.356Z,95101.72
2022-10-25T10:10:42.835Z,95063.78
2022-10-25T10:11:41.990Z,94937.50
2022-10-25T10:12:54.077Z,95093.66
2022-10-25T10:14:14.752Z,95103.28
2022-10-25T10:15:30.074Z,95048.81
2022-10-25T10:16:32.584Z,95099.50
2022-10-25T10:17:31.127Z,95042.84
2022-10-25T10:18:33.518Z,95041.16
2022-10-25T10:19:30.785Z,95012.06
2022-10-25T10:20:27.506Z,95117.84
2022-10-25T10:21:24.893Z,94736.59
2022-10-25T10:22:21.965Z,95088.06
2022-10-25T10:23:18.701Z,95084.44
2022-10-25T10:24:40.055Z,95079.00
2022-10-25T10:25:36.879Z,95091.06
2022-10-25T10:26:43.372Z,94997.38
2022-10-25T10:27:41.883Z,95051.25
2022-10-25T10:28:46.319Z,95080.00
2022-10-25T10:29:59.127Z,95070.13
2022-10-25T10:30:59.168Z,94900.34
2022-10-25T10:32:06.573Z,95084.41
2022-10-25T10:33:03.657Z,94959.25
2022-10-25T10:34:00.517Z,95075.00
2022-10-25T10:34:58.725Z,95005.09
2022-10-25T10:35:55.458Z,95074.41
2022-10-25T10:37:08.011Z,95062.59
2022-10-25T10:38:15.043Z,95059.41
2022-10-25T10:39:23.211Z,95037.09
2022-10-25T10:40:19.871Z,95055.19
2022-10-25T10:41:29.741Z,95070.09
2022-10-25T10:43:34.305Z,94954.34
2022-10-25T10:44:36.751Z,95070.59
2022-10-25T10:45:34.013Z,95053.38
2022-10-25T10:46:30.803Z,95056.91
2022-10-25T10:47:34.419Z,95008.94
2022-10-25T10:48:44.759Z,95053.91
2022-10-25T10:49:43.145Z,94909.13
2022-10-25T10:50:41.617Z,95052.59
2022-10-25T10:51:45.598Z,95054.88
2022-10-25T10:52:46.317Z,94905.88
2022-10-25T10:53:43.806Z,95056.97
2022-10-25T10:54:48.101Z,95056.63
2022-10-25T10:55:47.754Z,95038.19
2022-10-25T10:56:57.043Z,94971.59
2022-10-25T10:57:57.041Z,95032.22
2022-10-25T10:58:53.867Z,95041.72
2022-10-25T10:59:56.858Z,94952.97
2022-10-25T11:01:05.815Z,95038.22
2022-10-25T11:02:39.969Z,95036.31
2022-10-25T11:03:45.022Z,95033.56
2022-10-25T11:04:53.000Z,95040.97
2022-10-25T11:05:54.296Z,95029.69
2022-10-25T11:06:51.015Z,95044.19
2022-10-25T11:07:56.363Z,95042.00
2022-10-25T11:09:17.995Z,95025.56
2022-10-25T11:10:20.867Z,95015.78
2022-10-25T11:11:24.797Z,94885.75
2022-10-25T11:12:22.284Z,94913.53
2022-10-25T11:13:22.878Z,94979.91
2022-10-25T11:14:20.590Z,95030.03
2022-10-25T11:15:18.273Z,95034.38
2022-10-25T11:16:38.346Z,95012.78
2022-10-25T11:17:43.736Z,94927.88
2022-10-25T11:18:53.672Z,95010.69
2022-10-25T11:20:05.317Z,95009.28
2022-10-25T11:21:37.371Z,95011.41
2022-10-25T11:22:51.909Z,94975.06
2022-10-25T11:23:58.319Z,95008.94
2022-10-25T11:25:10.121Z,95008.59
2022-10-25T11:26:23.099Z,95014.25
2022-10-25T11:27:19.741Z,94972.06
2022-10-25T11:28:42.347Z,95000.19
2022-10-25T11:29:57.830Z,94998.22
2022-10-25T11:31:31.639Z,95010.81
2022-10-25T11:32:54.993Z,94993.56
2022-10-25T11:34:23.395Z,94998.94
2022-10-25T11:35:35.197Z,94994.28
2022-10-25T11:36:39.906Z,94990.88
2022-10-25T11:37:48.468Z,94991.00
2022-10-25T11:38:56.750Z,94989.06
2022-10-25T11:40:02.259Z,94985.00
2022-10-25T11:41:23.842Z,94983.69
2022-10-25T11:42:43.735Z,94987.47
2022-10-25T11:43:58.897Z,94975.09
2022-10-25T11:45:17.268Z,94978.00
2022-10-25T11:46:38.157Z,94894.91
2022-10-25T11:47:49.781Z,94972.50
2022-10-25T11:49:16.975Z,94974.88
2022-10-25T11:50:42.089Z,94990.22
2022-10-25T11:51:53.854Z,94965.22
2022-10-25T11:53:02.656Z,94964.88
2022-10-25T11:54:17.541Z,94973.38
2022-10-25T11:55:47.318Z,94966.19
2022-10-25T11:56:56.864Z,94959.94
2022-10-25T11:58:08.040Z,94922.38
2022-10-25T11:59:26.593Z,94960.22
2022-10-25T12:00:37.049Z,94947.03
2022-10-25T12:02:02.989Z,94956.00
2022-10-25T12:03:25.525Z,94952.47
2022-10-25T12:04:42.301Z,94923.06
2022-10-25T12:06:11.218Z,94962.09
2022-10-25T12:07:13.802Z,94950.50
2022-10-25T12:08:43.032Z,94963.41
2022-10-25T12:09:52.627Z,94951.09
2022-10-25T12:11:12.804Z,94964.00
2022-10-25T12:12:21.640Z,94964.91
2022-10-25T12:13:21.362Z,94949.28
2022-10-25T12:14:29.056Z,94966.94
2022-10-25T12:15:42.589Z,94919.19
2022-10-25T12:16:41.633Z,94967.06
2022-10-25T12:17:38.715Z,94960.84
2022-10-25T12:18:59.163Z,94903.78
2022-10-25T12:20:01.836Z,94969.91
2022-10-25T12:20:59.707Z,94955.88
2022-10-25T12:22:07.194Z,94935.78
2022-10-25T12:23:13.394Z,94939.34
2022-10-25T12:24:19.823Z,94860.28
2022-10-25T12:25:28.333Z,94948.03
2022-10-25T12:26:35.154Z,94950.72
2022-10-25T12:27:34.788Z,94955.44
2022-10-25T12:28:43.317Z,94952.16
2022-10-25T12:29:46.006Z,94962.41
2022-10-25T12:30:44.579Z,94830.06
2022-10-25T12:31:52.475Z,94962.22
2022-10-25T12:33:13.113Z,94958.09
2022-10-25T12:34:26.271Z,94937.25
2022-10-25T12:35:32.108Z,94922.53
2022-10-25T12:36:41.611Z,94946.22
2022-10-25T12:37:56.464Z,94935.53
2022-10-25T12:39:00.946Z,94921.25
2022-10-25T12:39:58.327Z,94966.53
2022-10-25T12:41:01.911Z,94929.72
2022-10-25T12:42:28.115Z,94954.50
2022-10-25T12:43:37.298Z,94847.72
2022-10-25T12:44:56.840Z,94915.28
2022-10-25T12:46:30.748Z,94957.28
2022-10-25T12:47:54.777Z,94952.91
2022-10-25T12:48:54.144Z,94957.41
2022-10-25T12:50:24.272Z,94955.50
2022-10-25T12:52:00.904Z,94956.09
2022-10-25T12:53:31.106Z,94958.69
2022-10-25T12:54:54.502Z,94928.78
2022-10-25T12:56:38.613Z,94931.06
2022-10-25T12:58:13.372Z,94959.31
2022-10-25T12:59:30.224Z,94957.72
2022-10-25T13:00:46.910Z,94926.03
2022-10-25T13:02:11.278Z,94978.44
2022-10-25T13:03:32.625Z,94949.44
2022-10-25T13:04:44.445Z,94958.69
2022-10-25T13:06:11.830Z,94958.91
2022-10-25T13:07:12.375Z,94945.53
2022-10-25T13:08:11.795Z,94947.94
2022-10-25T13:09:13.514Z,94950.13
2022-10-25T13:10:24.063Z,94973.06
2022-10-25T13:11:32.915Z,94954.50
2022-10-25T13:12:30.732Z,94960.56
2022-10-25T13:13:46.820Z,94907.09
2022-10-25T13:14:51.524Z,94962.78
2022-10-25T13:15:52.890Z,94957.50
2022-10-25T13:16:49.645Z,94922.63
2022-10-25T13:18:02.762Z,94960.31
2022-10-25T13:19:54.675Z,94933.41
2022-10-25T13:20:53.017Z,94933.59
2022-10-25T13:21:55.210Z,94927.72
2022-10-25T13:22:52.420Z,94956.81
2022-10-25T13:23:59.908Z,94892.13
2022-10-25T13:24:58.743Z,94946.56
2022-10-25T13:25:55.384Z,94944.34
2022-10-25T13:27:23.165Z,94942.88
2022-10-25T13:28:34.038Z,94948.34
2022-10-25T13:29:57.747Z,94940.00
2022-10-25T13:31:32.943Z,94922.22
2022-10-25T13:32:33.155Z,94931.19
2022-10-25T13:33:33.346Z,94935.47
2022-10-25T13:34:34.478Z,94894.28
2022-10-25T13:35:51.292Z,94902.91
2022-10-25T13:36:54.705Z,94943.34
2022-10-25T13:38:07.046Z,94947.53
2022-10-25T13:39:05.561Z,94926.84
2022-10-25T13:40:19.471Z,94951.63
2022-10-25T13:41:19.772Z,94955.53
2022-10-25T13:42:16.399Z,94933.19
2022-10-25T13:43:21.265Z,94951.31
2022-10-25T13:44:46.713Z,94956.78
2022-10-25T13:45:47.068Z,94895.03
2022-10-25T13:46:43.838Z,94965.34
2022-10-25T13:47:54.986Z,94941.94
2022-10-25T13:48:54.797Z,94949.09
2022-10-25T13:49:51.572Z,94950.31
2022-10-25T13:50:58.398Z,94950.31
2022-10-25T13:51:57.691Z,94879.59
2022-10-25T13:53:06.181Z,94959.88